aerodrome LA FERTE GAUCHER, LFFG, pilots, aviation, flying | pilotspace.eu

LA FERTE GAUCHER

aerodrome LA FERTE GAUCHER

ICAO/ID: LFFG
France
web: Réservé au parachutisme et aux avions de servitude
show on the map

LFPM 242100Z AUTO 01004KT 340V040 9999 NSC 21/15 Q1013

TAF LFPG 241700Z 2418/2524 01008KT CAVOK PROB40 TEMPO 2510/2520 4000 SHRA BKN030TCU PROB30 TEMPO 2515/2518 3000 TSRA SCT020CB BKN030 BECMG 2522/2524 33005KT TX27/2418Z TN16/2504Z

general information

altitude: 538 ft
latitude: 48 45 21 N
longitude: 003 16 36 E

traffic information

RWY: 05/23: 3,609 ft (1,100 m) — surface unknown
report copyright

Online pilot logbook: free for each registered member! http://www.pilotlogbook.eu


last flights

RECENTLY ADDED

Let.příručka ALTO

09/03/2014 (12x)

Roman Máca

Let.příručka ALTO

09/03/2014 (3x)

Roman Máca

ULRBK

08/02/2014 (13x)

northwolf

L-13 AC - akrobacie

L-13 AC - akrobacie

05/02/2014 (17x)

Davidlet

inzerát

inzerát

28/09/2013 (22x)

béza48

landing LZIB

landing LZIB

17/09/2013 (24x)

Kovino

tulák zelený

tulák zelený

17/09/2013 (20x)

Ivan Wolf

PPJ SK - Martin 2013

PPJ SK - Martin 2013

25/08/2013 (3x)

Kulda